This is the latest recevied weather packets stored in our database for station/object KD0OXW. If no packets are shown the sender has not sent any weather packets the latest 10 day(s).
| Time | Temp. | Humidity | Pressure | Rain* | Wind** | Luminosity | Snow |
|---|---|---|---|---|---|---|---|
| 1777815796 | 14.44° C | 55% | 1005.1 hPa | 0 mm | - | - | - |
| 1777815496 | 14.44° C | 54% | 1005.1 hPa | 0 mm | - | - | - |
| 1777815196 | 14.44° C | 54% | 1005.1 hPa | 0 mm | - | - | - |
| 1777814896 | 14.44° C | 54% | 1005.1 hPa | 0 mm | - | - | - |
| 1777814596 | 13.89° C | 55% | 1005.1 hPa | 0 mm | - | - | - |
| 1777814296 | 13.89° C | 56% | 1005 hPa | 0 mm | - | - | - |
| 1777813996 | 13.33° C | 60% | 1005.1 hPa | 0 mm | - | - | - |
| 1777813696 | 13.33° C | 60% | 1005.1 hPa | 0 mm | - | - | - |
| 1777813396 | 12.78° C | 62% | 1005.1 hPa | 0 mm | - | - | - |
| 1777813096 | 12.78° C | 64% | 1005.1 hPa | 0 mm | - | - | - |
| 1777812796 | 11.67° C | 69% | 1005.1 hPa | 0 mm | - | - | - |
| 1777812496 | 11.11° C | 72% | 1005.2 hPa | 0 mm | - | - | - |
| 1777812196 | 10.56° C | 75% | 1005.2 hPa | 0 mm | - | - | - |
| 1777811896 | 10° C | 81% | 1005.2 hPa | 0 mm | - | - | - |
| 1777811596 | 9.44° C | 84% | 1005.2 hPa | 0 mm | - | - | - |
| 1777811296 | 8.89° C | 86% | 1005.2 hPa | 0 mm | - | - | - |
| 1777810996 | 8.33° C | 89% | 1005.2 hPa | 0 mm | - | - | - |
| 1777810696 | 7.78° C | 90% | 1005.2 hPa | 0 mm | - | - | - |
| 1777810396 | 7.22° C | 90% | 1005.3 hPa | 0 mm | - | - | - |
| 1777810096 | 6.67° C | 89% | 1005.2 hPa | 0 mm | - | - | - |
| 1777809796 | 6.67° C | 88% | 1005.2 hPa | 0 mm | - | - | - |
| 1777809496 | 6.11° C | 88% | 1005.1 hPa | 0 mm | - | - | - |
| 1777809196 | 6.11° C | 88% | 1005.1 hPa | 0 mm | - | - | - |
| 1777808896 | 6.11° C | 88% | 1005.1 hPa | 0 mm | - | - | - |
| 1777808596 | 6.11° C | 88% | 1005.1 hPa | 0 mm | - | - | - |
* Rain latest hour (hover to see other rain measurements)
** Current wind speed in m/s (hover to see current wind gust speed)